Time;durP1;ratioP1;P1;durP2;ratioP2;P2;SDS_P1;SDS_P2;PMS_P1;PMS_P2;Temp;Humidity;BMP_temperature;BMP_pressure;BME280_temperature;BME280_humidity;BME280_pressure;Samples;Min_cycle;Max_cycle;Signal;HPM_P1;HPM_P2
2022/07/04 00:02:24;;;;;;;1.83;1.73;;;19.40;99.90;;;;;;5033187;28;20636;-73
2022/07/04 00:04:49;;;;;;;2.55;1.90;;;19.30;99.90;;;;;;5033915;28;20196;-73
2022/07/04 00:07:15;;;;;;;1.63;1.60;;;19.30;99.90;;;;;;5018393;28;20188;-73
2022/07/04 00:09:41;;;;;;;3.00;1.80;;;19.40;99.90;;;;;;5013206;28;20197;-73
2022/07/04 00:12:07;;;;;;;1.92;1.70;;;19.40;99.90;;;;;;5013834;28;20181;-72
2022/07/04 00:14:32;;;;;;;1.73;1.63;;;19.30;99.90;;;;;;5013692;28;20194;-73
2022/07/04 00:16:58;;;;;;;1.30;1.30;;;19.30;99.90;;;;;;5014053;28;20177;-73
2022/07/04 00:19:23;;;;;;;1.98;1.88;;;19.30;99.90;;;;;;5013489;28;20177;-73
2022/07/04 00:21:49;;;;;;;2.13;1.90;;;19.40;99.90;;;;;;5013119;28;20184;-74
2022/07/04 00:24:15;;;;;;;1.55;1.40;;;19.30;99.90;;;;;;5013790;28;20206;-74
2022/07/04 00:26:40;;;;;;;2.35;1.60;;;19.30;99.90;;;;;;5013487;28;20177;-74
2022/07/04 00:29:06;;;;;;;1.98;1.88;;;19.20;99.90;;;;;;5013391;28;20252;-74
2022/07/04 00:31:32;;;;;;;2.72;1.90;;;19.20;99.90;;;;;;5013267;28;20185;-75
2022/07/04 00:33:57;;;;;;;6.82;2.30;;;19.10;99.90;;;;;;5013055;28;20284;-74
2022/07/04 00:36:23;;;;;;;1.80;1.70;;;19.10;99.90;;;;;;5012936;28;20181;-74
2022/07/04 00:38:48;;;;;;;3.33;1.80;;;19.00;99.90;;;;;;5025365;28;20264;-74
2022/07/04 00:41:14;;;;;;;1.60;1.60;;;19.00;99.90;;;;;;5023943;28;20189;-75
2022/07/04 00:43:40;;;;;;;2.15;1.95;;;19.00;99.90;;;;;;5022803;28;20181;-74
2022/07/04 00:46:05;;;;;;;1.60;1.52;;;19.10;99.90;;;;;;5030263;28;20659;-74
2022/07/04 00:48:32;;;;;;;1.40;1.40;;;19.10;99.90;;;;;;5027612;28;20564;-73
2022/07/04 00:50:58;;;;;;;2.30;1.92;;;19.10;99.90;;;;;;5032467;28;20181;-74
2022/07/04 00:53:25;;;;;;;1.58;1.58;;;19.20;99.90;;;;;;5026889;28;20173;-74
2022/07/04 00:55:51;;;;;;;1.30;1.30;;;19.30;99.90;;;;;;5032108;28;20190;-74
2022/07/04 00:58:20;;;;;;;1.58;1.48;;;19.30;99.90;;;;;;5034874;28;20176;-74
2022/07/04 01:00:46;;;;;;;1.77;1.67;;;19.50;99.90;;;;;;5033259;28;20208;-74
2022/07/04 01:03:12;;;;;;;1.60;1.60;;;19.50;99.90;;;;;;5042855;28;20172;-74
2022/07/04 01:05:39;;;;;;;1.85;1.75;;;19.50;99.90;;;;;;5026724;28;20203;-74
2022/07/04 01:08:05;;;;;;;6.68;2.03;;;19.60;99.90;;;;;;5020270;28;20177;-74
2022/07/04 01:10:31;;;;;;;1.65;1.52;;;19.60;99.90;;;;;;5022123;28;20201;-74
2022/07/04 01:12:57;;;;;;;1.42;1.33;;;19.60;99.90;;;;;;5020818;28;20275;-74
2022/07/04 01:15:23;;;;;;;1.67;1.50;;;19.70;99.90;;;;;;5021267;28;20580;-74
2022/07/04 01:17:49;;;;;;;1.60;1.50;;;19.70;99.90;;;;;;5022094;28;20664;-74
2022/07/04 01:20:15;;;;;;;2.33;1.50;;;19.70;99.90;;;;;;5037305;28;20181;-74
2022/07/04 01:22:41;;;;;;;1.48;1.38;;;19.70;99.90;;;;;;5022145;28;20340;-74
2022/07/04 01:25:10;;;;;;;1.67;1.60;;;19.70;99.90;;;;;;5023138;28;20239;-74
2022/07/04 01:27:35;;;;;;;1.85;1.48;;;19.70;99.90;;;;;;5023153;28;20546;-74
2022/07/04 01:30:01;;;;;;;1.60;1.50;;;19.60;99.90;;;;;;5031667;28;20205;-74
2022/07/04 01:32:27;;;;;;;1.35;1.35;;;19.60;99.90;;;;;;5021048;28;20184;-74
2022/07/04 01:34:53;;;;;;;1.35;1.30;;;19.60;99.90;;;;;;5019761;28;20207;-74
2022/07/04 01:37:18;;;;;;;1.85;1.40;;;19.60;99.90;;;;;;5021075;28;20185;-74
2022/07/04 01:39:44;;;;;;;1.73;1.63;;;19.60;99.90;;;;;;5025704;28;20185;-74
2022/07/04 01:42:10;;;;;;;1.27;1.27;;;19.50;99.90;;;;;;5024801;28;20219;-74
2022/07/04 01:44:35;;;;;;;2.75;1.70;;;19.50;99.90;;;;;;5025255;28;20251;-74
2022/07/04 01:47:02;;;;;;;3.65;1.63;;;19.50;99.90;;;;;;5024149;28;20173;-74
2022/07/04 01:49:28;;;;;;;1.48;1.38;;;19.50;99.90;;;;;;5020950;28;20278;-74
2022/07/04 01:51:53;;;;;;;2.17;1.52;;;19.40;99.90;;;;;;5021880;28;20185;-74
2022/07/04 01:54:19;;;;;;;1.55;1.45;;;19.40;99.90;;;;;;5020765;28;20200;-74
2022/07/04 01:56:45;;;;;;;1.58;1.42;;;19.30;99.90;;;;;;5021363;28;20180;-74
2022/07/04 01:59:11;;;;;;;1.50;1.40;;;19.40;99.90;;;;;;5022411;28;20556;-74
2022/07/04 02:01:37;;;;;;;1.83;1.73;;;19.40;99.90;;;;;;5018915;28;20221;-74
2022/07/04 02:04:04;;;;;;;1.83;1.73;;;19.40;99.90;;;;;;5025433;28;20463;-74
2022/07/04 02:06:31;;;;;;;1.77;1.67;;;19.30;99.90;;;;;;5031582;28;20184;-74
2022/07/04 02:09:15;;;;;;;2.00;1.73;;;19.40;99.90;;;;;;5030337;28;20196;-74
2022/07/04 02:14:26;;;;;;;1.33;1.33;;;19.60;99.90;;;;;;5011884;28;20576;-74
2022/07/04 02:16:53;;;;;;;1.58;1.42;;;19.60;99.90;;;;;;5012372;28;20169;-74
2022/07/04 02:19:18;;;;;;;1.48;1.38;;;19.60;99.90;;;;;;5031607;28;20168;-74
2022/07/04 02:21:44;;;;;;;2.30;1.50;;;19.40;99.90;;;;;;5030918;28;20187;-75
2022/07/04 02:24:10;;;;;;;1.70;1.60;;;19.40;99.90;;;;;;5031473;28;20201;-74
2022/07/04 02:26:35;;;;;;;1.85;1.75;;;19.30;99.90;;;;;;5021815;28;20189;-74
2022/07/04 02:29:01;;;;;;;2.65;1.50;;;19.30;99.90;;;;;;5011660;28;20251;-74
2022/07/04 02:31:27;;;;;;;1.30;1.30;;;19.30;99.90;;;;;;5011745;28;20193;-74
2022/07/04 02:33:52;;;;;;;1.55;1.45;;;19.20;99.90;;;;;;5015281;28;20193;-74
2022/07/04 02:36:18;;;;;;;2.92;1.70;;;19.10;99.90;;;;;;5015424;28;20189;-74
2022/07/04 02:38:43;;;;;;;1.75;1.67;;;19.20;99.90;;;;;;5015845;28;20182;-74
2022/07/04 02:41:09;;;;;;;1.80;1.70;;;19.30;99.90;;;;;;5022384;28;20212;-74
2022/07/04 02:43:35;;;;;;;2.22;1.50;;;19.20;99.90;;;;;;5034462;28;20187;-74
2022/07/04 02:46:00;;;;;;;1.45;1.45;;;19.30;99.90;;;;;;5051051;28;20187;-74
2022/07/04 02:48:26;;;;;;;1.65;1.60;;;19.20;99.90;;;;;;5031080;28;20212;-74
2022/07/04 02:50:51;;;;;;;1.85;1.75;;;19.10;99.90;;;;;;5046650;28;20176;-74
2022/07/04 02:53:17;;;;;;;2.50;1.83;;;19.00;99.90;;;;;;5035259;28;20190;-74
2022/07/04 02:55:43;;;;;;;1.65;1.60;;;19.00;99.90;;;;;;5038362;28;20610;-74
2022/07/04 02:58:08;;;;;;;1.90;1.80;;;19.00;99.90;;;;;;5034895;28;20168;-74
2022/07/04 03:00:34;;;;;;;2.28;1.50;;;19.00;99.90;;;;;;5034858;28;20255;-74
2022/07/04 03:02:59;;;;;;;1.73;1.63;;;19.00;99.90;;;;;;5016376;28;20715;-74
2022/07/04 03:05:25;;;;;;;2.08;1.42;;;18.90;99.90;;;;;;5027727;28;20212;-74
2022/07/04 03:07:51;;;;;;;1.95;1.50;;;18.80;99.90;;;;;;5043986;28;20177;-74
2022/07/04 03:10:16;;;;;;;1.40;1.40;;;18.80;99.90;;;;;;5031111;28;20399;-74
2022/07/04 03:12:42;;;;;;;1.88;1.77;;;18.80;99.90;;;;;;5045934;28;20645;-75
2022/07/04 03:15:08;;;;;;;1.90;1.70;;;18.80;99.90;;;;;;5054001;28;20191;-75
2022/07/04 03:17:33;;;;;;;1.55;1.45;;;18.80;99.90;;;;;;5054658;28;20187;-75
2022/07/04 03:19:59;;;;;;;1.50;1.40;;;18.80;99.90;;;;;;5025186;28;20192;-75
2022/07/04 03:22:26;;;;;;;1.80;1.70;;;18.80;99.90;;;;;;5014543;28;20428;-75
2022/07/04 03:24:51;;;;;;;2.15;1.98;;;18.80;99.90;;;;;;5014600;28;20208;-75
2022/07/04 03:27:17;;;;;;;2.08;1.90;;;18.70;99.90;;;;;;5014578;28;20181;-75
2022/07/04 03:29:42;;;;;;;1.80;1.70;;;18.60;99.90;;;;;;5014296;28;20271;-75
2022/07/04 03:32:08;;;;;;;3.08;1.55;;;18.60;99.90;;;;;;5014340;28;20174;-75
2022/07/04 03:34:34;;;;;;;1.80;1.70;;;18.60;99.90;;;;;;5014032;28;20201;-75
2022/07/04 03:36:59;;;;;;;2.78;1.60;;;18.70;99.90;;;;;;5023584;28;20176;-75
2022/07/04 03:39:25;;;;;;;1.67;1.58;;;18.70;99.90;;;;;;5032943;28;20173;-74
2022/07/04 03:41:50;;;;;;;1.50;1.40;;;18.70;99.90;;;;;;5033802;28;20172;-74
2022/07/04 03:44:16;;;;;;;2.15;1.80;;;18.70;99.90;;;;;;5031442;28;20201;-74
2022/07/04 03:46:42;;;;;;;1.80;1.70;;;18.70;99.90;;;;;;5034045;28;20168;-74
2022/07/04 03:49:07;;;;;;;1.90;1.80;;;18.70;99.90;;;;;;5027488;28;20200;-74
2022/07/04 03:51:34;;;;;;;1.75;1.65;;;18.70;99.90;;;;;;5033502;28;20231;-74
2022/07/04 03:53:59;;;;;;;1.50;1.40;;;18.70;99.90;;;;;;5017756;28;20205;-74
2022/07/04 03:56:25;;;;;;;2.35;1.58;;;18.80;99.90;;;;;;5011822;28;20238;-75
2022/07/04 03:58:50;;;;;;;1.67;1.52;;;19.00;99.90;;;;;;5031192;28;20648;-75
2022/07/04 04:01:18;;;;;;;2.08;1.60;;;19.00;99.90;;;;;;5034085;28;20184;-75
2022/07/04 04:06:29;;;;;;;1.50;1.40;;;19.20;99.90;;;;;;5027027;28;20283;-75
2022/07/04 04:08:55;;;;;;;1.70;1.60;;;19.30;99.90;;;;;;5032946;28;20211;-75
2022/07/04 04:11:20;;;;;;;1.77;1.63;;;19.50;99.90;;;;;;5033587;28;20252;-75
2022/07/04 04:13:46;;;;;;;1.67;1.50;;;19.50;99.90;;;;;;5023245;28;20189;-75
2022/07/04 04:16:11;;;;;;;1.50;1.40;;;19.50;99.90;;;;;;5013763;28;20169;-75
2022/07/04 04:18:37;;;;;;;1.60;1.60;;;19.60;99.90;;;;;;5013748;28;20687;-75
2022/07/04 04:21:03;;;;;;;1.55;1.55;;;19.50;99.90;;;;;;5013343;28;20188;-75
2022/07/04 04:23:29;;;;;;;1.58;1.50;;;19.70;99.90;;;;;;5013314;28;20188;-74
2022/07/04 04:25:55;;;;;;;4.00;1.80;;;19.70;99.90;;;;;;5013099;28;20173;-75
2022/07/04 04:28:21;;;;;;;1.95;1.85;;;19.70;99.90;;;;;;5013453;28;20652;-76
2022/07/04 04:30:47;;;;;;;1.80;1.70;;;19.80;99.90;;;;;;5013501;28;20222;-74
2022/07/04 04:33:13;;;;;;;1.60;1.50;;;19.80;99.90;;;;;;5013172;28;20691;-74
2022/07/04 04:35:38;;;;;;;1.70;1.60;;;19.90;99.90;;;;;;5013120;28;20193;-74
2022/07/04 04:38:04;;;;;;;1.63;1.52;;;20.00;99.90;;;;;;5036465;28;20215;-74
2022/07/04 04:40:30;;;;;;;2.55;1.42;;;20.20;99.90;;;;;;5044584;28;20190;-74
2022/07/04 04:42:56;;;;;;;2.30;1.42;;;20.30;99.90;;;;;;5039264;28;20185;-74
2022/07/04 04:45:22;;;;;;;1.90;1.80;;;20.30;99.90;;;;;;5044245;28;20192;-74
2022/07/04 04:47:47;;;;;;;1.52;1.42;;;20.40;99.90;;;;;;5018873;28;20192;-74
2022/07/04 04:50:14;;;;;;;1.55;1.50;;;20.40;99.90;;;;;;5015529;28;20288;-74
2022/07/04 04:52:43;;;;;;;1.98;1.88;;;20.50;99.90;;;;;;5039956;28;20647;-74
2022/07/04 04:55:09;;;;;;;3.17;1.98;;;20.60;99.90;;;;;;5025516;28;20667;-75
2022/07/04 04:57:34;;;;;;;1.60;1.40;;;20.70;99.90;;;;;;5036756;28;20179;-75
2022/07/04 05:00:01;;;;;;;1.52;1.48;;;20.80;99.90;;;;;;5032635;28;20169;-75
2022/07/04 05:02:26;;;;;;;1.80;1.70;;;21.00;99.90;;;;;;5032187;28;20257;-74
2022/07/04 05:04:53;;;;;;;2.25;1.60;;;21.00;99.90;;;;;;5017584;28;20284;-74
2022/07/04 05:07:19;;;;;;;1.85;1.50;;;21.00;99.90;;;;;;5013030;28;20889;-74
2022/07/04 05:09:44;;;;;;;1.83;1.73;;;21.00;99.90;;;;;;5012657;28;20213;-75
2022/07/04 05:12:10;;;;;;;1.60;1.50;;;21.00;99.90;;;;;;5012548;28;20510;-75
2022/07/04 05:14:36;;;;;;;3.28;1.75;;;21.20;99.90;;;;;;5012662;28;20229;-75
2022/07/04 05:17:02;;;;;;;2.60;1.75;;;21.30;99.90;;;;;;5012621;28;20181;-74
2022/07/04 05:19:28;;;;;;;1.80;1.70;;;21.50;99.90;;;;;;5012112;28;20181;-72
2022/07/04 05:21:53;;;;;;;6.30;1.73;;;21.60;99.90;;;;;;5012259;28;20204;-72
2022/07/04 05:24:19;;;;;;;3.67;1.67;;;21.70;99.90;;;;;;5012496;28;20215;-72
2022/07/04 05:26:44;;;;;;;2.10;2.00;;;21.70;99.90;;;;;;5012496;28;20173;-71
2022/07/04 05:29:10;;;;;;;4.25;1.90;;;21.80;99.90;;;;;;5012411;28;20258;-71
2022/07/04 05:31:36;;;;;;;3.55;2.10;;;22.00;99.90;;;;;;5015767;28;20213;-71
2022/07/04 05:34:01;;;;;;;2.55;1.80;;;22.20;99.90;;;;;;5031367;28;20203;-71
2022/07/04 05:36:28;;;;;;;3.88;2.00;;;22.40;99.90;;;;;;5032087;28;20172;-71
2022/07/04 05:38:53;;;;;;;2.80;2.03;;;22.70;99.90;;;;;;5032112;28;20172;-71
2022/07/04 05:41:19;;;;;;;3.58;2.08;;;23.00;99.90;;;;;;5028889;28;20566;-72
2022/07/04 05:43:45;;;;;;;2.85;1.80;;;23.10;99.90;;;;;;5031289;28;20185;-72
2022/07/04 05:46:10;;;;;;;3.92;1.98;;;23.10;99.90;;;;;;5043462;28;20325;-72
2022/07/04 05:48:36;;;;;;;3.03;1.88;;;23.20;99.90;;;;;;5040318;28;20180;-72
2022/07/04 05:51:05;;;;;;;2.45;1.73;;;23.20;99.90;;;;;;5039388;28;20183;-73
2022/07/04 05:53:31;;;;;;;2.95;2.30;;;23.20;99.90;;;;;;5050938;28;20174;-72
2022/07/04 05:55:57;;;;;;;3.95;2.13;;;23.40;99.90;;;;;;5051694;28;20168;-73
2022/07/04 05:58:23;;;;;;;2.33;1.90;;;23.30;99.90;;;;;;5020234;28;20523;-73
2022/07/04 06:00:48;;;;;;;5.57;1.90;;;23.40;99.90;;;;;;5027258;28;20186;-74
2022/07/04 06:03:14;;;;;;;3.58;2.10;;;23.40;99.90;;;;;;5033731;28;20218;-74
2022/07/04 06:05:39;;;;;;;5.85;2.30;;;23.40;99.90;;;;;;5027462;28;20203;-75
2022/07/04 06:08:05;;;;;;;4.50;2.50;;;23.50;99.90;;;;;;5024428;28;20250;-75
2022/07/04 06:10:31;;;;;;;4.32;2.00;;;23.60;99.90;;;;;;5021574;28;20204;-75
2022/07/04 06:12:56;;;;;;;4.18;1.98;;;23.90;99.90;;;;;;5024230;28;20181;-74
2022/07/04 06:15:22;;;;;;;3.53;2.20;;;24.10;99.90;;;;;;5030754;28;20246;-74
2022/07/04 06:17:48;;;;;;;2.28;1.80;;;24.20;99.90;;;;;;5018512;28;20195;-74
2022/07/04 06:20:15;;;;;;;5.28;2.15;;;24.40;99.90;;;;;;5025664;28;20187;-75
2022/07/04 06:22:45;;;;;;;3.00;1.65;;;24.60;99.90;;;;;;5018589;28;20267;-74
2022/07/04 06:25:16;;;;;;;6.22;1.90;;;24.50;99.90;;;;;;5016108;28;20226;-73
2022/07/04 06:27:43;;;;;;;4.63;2.05;;;24.70;99.90;;;;;;5018360;28;20200;-73
2022/07/04 06:30:10;;;;;;;5.50;2.17;;;24.60;99.90;;;;;;5019886;28;20210;-74
2022/07/04 06:32:53;;;;;;;11.10;2.33;;;24.60;99.90;;;;;;5021896;28;20189;-75
2022/07/04 06:38:05;;;;;;;7.65;2.35;;;24.00;99.90;;;;;;5030929;28;20186;-75
2022/07/04 06:40:31;;;;;;;6.65;2.85;;;23.80;99.90;;;;;;5018898;28;20177;-74
2022/07/04 06:42:57;;;;;;;2.92;2.05;;;23.50;99.90;;;;;;5021358;28;20671;-74
2022/07/04 06:45:22;;;;;;;2.67;1.98;;;23.40;99.90;;;;;;5033734;28;20199;-74
2022/07/04 06:47:48;;;;;;;11.32;2.47;;;23.20;99.90;;;;;;5041438;28;20605;-75
2022/07/04 06:50:13;;;;;;;5.75;1.80;;;23.00;99.90;;;;;;5022863;28;20197;-76
2022/07/04 06:52:39;;;;;;;5.72;2.03;;;22.80;99.90;;;;;;5021427;28;20664;-74
2022/07/04 06:55:06;;;;;;;3.80;2.17;;;22.70;99.90;;;;;;5014167;28;20217;-75
2022/07/04 06:57:32;;;;;;;5.25;2.20;;;22.60;99.90;;;;;;5011517;28;20173;-76
2022/07/04 06:59:57;;;;;;;11.77;2.72;;;22.40;99.90;;;;;;5010250;28;20181;-75
2022/07/04 07:02:23;;;;;;;7.43;2.22;;;22.50;99.90;;;;;;5014488;28;20235;-78
2022/07/04 07:04:49;;;;;;;4.55;2.38;;;22.60;99.90;;;;;;5017840;28;20263;-80
2022/07/04 07:07:14;;;;;;;3.55;2.50;;;22.80;99.90;;;;;;5024712;28;20187;-77
2022/07/04 07:09:40;;;;;;;5.75;2.42;;;23.10;99.90;;;;;;5027311;28;20205;-77
2022/07/04 07:12:06;;;;;;;4.15;2.75;;;23.40;99.90;;;;;;5026047;28;20176;-76
2022/07/04 07:14:31;;;;;;;7.40;2.35;;;23.50;99.90;;;;;;5015737;28;20193;-75
2022/07/04 07:16:58;;;;;;;5.10;2.35;;;23.70;99.90;;;;;;5025128;28;20200;-80
2022/07/04 07:19:23;;;;;;;6.38;2.72;;;23.80;99.90;;;;;;5045785;28;20180;-83
2022/07/04 07:21:49;;;;;;;5.30;2.10;;;24.00;99.90;;;;;;5032611;28;20176;-76
2022/07/04 07:24:14;;;;;;;4.30;2.35;;;24.10;99.90;;;;;;5034510;28;20192;-76
2022/07/04 07:26:40;;;;;;;4.32;2.10;;;24.20;99.90;;;;;;5026458;28;20185;-75
2022/07/04 07:29:06;;;;;;;8.63;2.55;;;24.30;99.90;;;;;;5024495;28;20204;-76
2022/07/04 07:31:32;;;;;;;3.35;2.30;;;24.30;99.90;;;;;;5026750;28;20195;-76
2022/07/04 07:33:57;;;;;;;7.78;2.20;;;24.30;99.90;;;;;;5030606;28;20292;-77
2022/07/04 07:36:23;;;;;;;2.28;2.08;;;24.40;99.90;;;;;;5028054;28;20648;-76
2022/07/04 07:38:48;;;;;;;5.80;2.13;;;24.50;99.90;;;;;;5025240;28;20185;-77
2022/07/04 07:41:14;;;;;;;2.90;2.13;;;24.70;99.90;;;;;;5020888;28;20185;-76
2022/07/04 07:43:40;;;;;;;4.22;2.10;;;25.20;99.90;;;;;;5023339;28;20222;-76
2022/07/04 07:46:07;;;;;;;2.17;1.90;;;25.70;99.90;;;;;;5021692;28;20177;-76
2022/07/04 07:48:33;;;;;;;6.28;2.28;;;26.20;98.70;;;;;;5025937;28;20660;-76
2022/07/04 07:50:59;;;;;;;4.13;2.00;;;26.40;97.80;;;;;;5027699;28;20200;-76
2022/07/04 07:53:25;;;;;;;2.13;1.80;;;26.70;97.50;;;;;;5022704;28;20235;-72
2022/07/04 07:55:51;;;;;;;2.78;2.17;;;27.00;97.20;;;;;;5016369;28;20564;-73
2022/07/04 07:58:16;;;;;;;3.55;1.80;;;27.10;97.40;;;;;;5021274;28;20199;-74
2022/07/04 08:00:42;;;;;;;3.00;1.63;;;27.20;96.80;;;;;;5025633;28;20604;-72
2022/07/04 08:05:52;;;;;;;1.50;1.40;;;27.60;93.00;;;;;;5028689;28;20634;-73
2022/07/04 08:08:17;;;;;;;1.80;1.70;;;27.50;91.90;;;;;;5041605;28;20203;-76
2022/07/04 08:10:43;;;;;;;2.20;1.58;;;27.60;90.20;;;;;;5039677;28;20211;-73
2022/07/04 08:13:09;;;;;;;3.65;1.90;;;27.80;89.80;;;;;;5038899;28;20188;-73
2022/07/04 08:15:36;;;;;;;2.72;1.70;;;27.90;90.10;;;;;;5044700;28;20223;-74
2022/07/04 08:18:01;;;;;;;1.40;1.33;;;28.30;90.30;;;;;;5029100;28;20648;-73
2022/07/04 08:20:27;;;;;;;1.42;1.38;;;28.70;85.70;;;;;;5023197;28;20191;-75
2022/07/04 08:22:53;;;;;;;2.05;1.60;;;28.90;82.60;;;;;;5022919;28;20177;-76
2022/07/04 08:25:19;;;;;;;1.88;1.67;;;29.00;81.60;;;;;;5020490;28;20681;-74
2022/07/04 08:27:45;;;;;;;2.30;1.33;;;29.00;83.30;;;;;;5026031;28;20177;-75
2022/07/04 08:30:11;;;;;;;1.63;1.52;;;29.30;81.40;;;;;;5034629;28;20568;-78
2022/07/04 08:32:37;;;;;;;4.93;1.58;;;29.40;78.10;;;;;;5021273;28;20541;-74
2022/07/04 08:35:03;;;;;;;2.50;1.40;;;29.30;80.70;;;;;;5021732;28;20711;-73
2022/07/04 08:37:29;;;;;;;1.30;1.30;;;29.40;76.60;;;;;;5019844;28;20260;-71
2022/07/04 08:39:54;;;;;;;2.65;1.60;;;29.50;77.00;;;;;;5030713;28;20263;-71
2022/07/04 08:42:21;;;;;;;1.58;1.40;;;29.50;76.60;;;;;;5026850;28;20231;-70
2022/07/04 08:44:49;;;;;;;3.53;1.73;;;29.50;77.00;;;;;;5026202;28;20899;-71
2022/07/04 08:47:21;;;;;;;1.60;1.50;;;29.40;78.70;;;;;;5024251;28;20189;-72
2022/07/04 08:50:02;;;;;;;3.05;1.50;;;29.40;76.60;;;;;;5023322;28;20205;-71
2022/07/04 08:52:39;;;;;;;2.25;1.70;;;29.00;80.50;;;;;;5021775;28;20173;-74
2022/07/04 09:00:36;;;;;;;1.92;1.70;;;29.00;79.70;;;;;;5021111;28;20642;-74
2022/07/04 09:03:03;;;;;;;1.65;1.42;;;29.40;79.60;;;;;;5017865;28;20631;-72
2022/07/04 09:05:31;;;;;;;2.22;2.00;;;29.60;76.00;;;;;;5026619;28;20754;-73
2022/07/04 09:07:58;;;;;;;3.78;1.80;;;29.60;76.90;;;;;;5030696;28;20254;-73
2022/07/04 09:10:24;;;;;;;3.35;1.80;;;29.40;78.50;;;;;;5025858;28;20204;-73
2022/07/04 09:12:51;;;;;;;5.47;1.40;;;29.30;78.50;;;;;;5020868;28;20196;-71
2022/07/04 09:15:17;;;;;;;2.67;1.50;;;29.40;78.40;;;;;;5022565;28;20258;-72
2022/07/04 09:17:42;;;;;;;1.85;1.60;;;29.60;79.00;;;;;;5021209;28;20181;-71
2022/07/04 09:20:21;;;;;;;1.90;1.50;;;30.20;76.10;;;;;;5021761;28;20267;-71
2022/07/04 09:22:47;;;;;;;1.95;1.52;;;30.60;74.30;;;;;;5021313;28;20192;-71
2022/07/04 09:25:14;;;;;;;2.72;1.45;;;30.70;75.10;;;;;;5028716;28;20196;-72
2022/07/04 09:27:47;;;;;;;2.05;1.45;;;30.90;72.20;;;;;;5024000;28;20268;-71
2022/07/04 09:30:14;;;;;;;1.88;1.50;;;30.90;71.60;;;;;;5016797;28;20211;-70
2022/07/04 09:32:41;;;;;;;2.83;1.50;;;30.90;75.50;;;;;;5028494;28;20192;-72
2022/07/04 09:35:16;;;;;;;1.20;1.20;;;30.80;73.50;;;;;;5020377;28;20185;-71
2022/07/04 09:37:45;;;;;;;1.73;1.63;;;30.60;73.60;;;;;;5021217;28;20532;-71
2022/07/04 09:40:26;;;;;;;2.17;1.40;;;30.70;72.30;;;;;;5022926;28;20705;-70
2022/07/04 09:42:53;;;;;;;3.28;1.65;;;31.30;71.20;;;;;;5022756;28;20180;-70
2022/07/04 09:45:21;;;;;;;1.60;1.50;;;32.00;70.10;;;;;;5014729;28;20196;-72
2022/07/04 09:47:47;;;;;;;2.38;1.25;;;32.30;66.30;;;;;;5024403;28;20219;-72
2022/07/04 09:50:18;;;;;;;1.58;1.48;;;32.20;67.30;;;;;;5018828;28;20599;-72
2022/07/04 09:52:51;;;;;;;2.15;1.58;;;32.50;66.50;;;;;;5020224;28;20191;-72
2022/07/04 09:55:39;;;;;;;2.17;1.52;;;32.70;66.10;;;;;;5026172;28;20187;-70
2022/07/04 09:58:07;;;;;;;3.20;1.60;;;32.50;65.70;;;;;;5028405;28;20176;-71
2022/07/04 10:00:35;;;;;;;1.75;1.60;;;32.20;67.00;;;;;;5020049;28;20279;-70
2022/07/04 10:03:22;;;;;;;3.17;1.77;;;32.30;67.80;;;;;;5025322;28;20592;-72
2022/07/04 10:06:10;;;;;;;3.42;1.85;;;33.70;65.00;;;;;;5019389;28;20258;-71
2022/07/04 10:08:36;;;;;;;1.70;1.60;;;34.90;61.70;;;;;;5019342;28;20188;-72
2022/07/04 10:11:03;;;;;;;3.60;2.05;;;35.10;60.40;;;;;;5023746;28;20176;-71
2022/07/04 10:13:29;;;;;;;3.72;1.63;;;35.10;59.80;;;;;;5025262;28;20180;-71
2022/07/04 10:15:55;;;;;;;1.70;1.60;;;36.00;59.00;;;;;;5020534;28;20225;-72
2022/07/04 10:18:22;;;;;;;4.25;1.52;;;37.40;56.10;;;;;;5014672;28;20176;-72
2022/07/04 10:20:49;;;;;;;1.10;1.02;;;37.60;55.20;;;;;;5021080;28;20284;-72
2022/07/04 10:23:16;;;;;;;1.30;1.20;;;39.00;52.50;;;;;;5022639;28;20172;-73
2022/07/04 10:25:42;;;;;;;3.05;1.50;;;40.30;48.90;;;;;;5033658;28;20242;-73
2022/07/04 10:28:08;;;;;;;2.88;1.60;;;39.40;53.30;;;;;;5039847;28;20203;-73
2022/07/04 10:30:38;;;;;;;1.52;1.52;;;39.30;51.40;;;;;;5022381;28;20204;-73
2022/07/04 10:33:07;;;;;;;2.15;1.23;;;39.70;50.70;;;;;;5035147;28;20263;-72
2022/07/04 10:35:51;;;;;;;2.10;1.40;;;40.70;47.90;;;;;;5044498;28;20191;-74
2022/07/04 10:38:21;;;;;;;1.00;1.00;;;41.30;46.40;;;;;;5037001;28;20581;-72
2022/07/04 10:40:54;;;;;;;2.13;1.48;;;41.90;44.30;;;;;;5023911;28;20695;-72
2022/07/04 10:43:37;;;;;;;2.20;1.40;;;41.60;45.10;;;;;;5023471;28;20721;-71
2022/07/04 10:46:15;;;;;;;1.65;1.40;;;41.80;44.40;;;;;;5031874;28;20191;-71
2022/07/04 10:48:54;;;;;;;2.40;1.38;;;42.10;42.70;;;;;;5029508;28;20211;-71
2022/07/04 10:51:45;;;;;;;1.05;1.05;;;41.30;43.70;;;;;;5037819;28;20608;-73
2022/07/04 10:54:21;;;;;;;2.88;1.33;;;40.40;43.60;;;;;;5027881;28;20210;-71
2022/07/04 10:56:51;;;;;;;2.35;1.08;;;40.90;44.00;;;;;;5032062;28;20543;-71
2022/07/04 10:59:23;;;;;;;1.80;1.10;;;41.20;42.90;;;;;;5024598;28;20192;-70
2022/07/04 11:02:13;;;;;;;1.13;1.13;;;41.40;44.30;;;;;;5014597;28;20173;-70
2022/07/04 11:04:54;;;;;;;3.05;1.25;;;42.30;41.60;;;;;;5015007;28;20211;-71
2022/07/04 11:07:29;;;;;;;1.20;1.10;;;42.10;41.60;;;;;;5015069;28;20538;-71
2022/07/04 11:10:15;;;;;;;1.58;1.35;;;41.60;41.90;;;;;;5014883;28;20221;-71
2022/07/04 11:13:02;;;;;;;2.92;1.20;;;41.30;42.10;;;;;;5014553;28;20183;-71
2022/07/04 11:15:31;;;;;;;1.33;1.20;;;41.40;43.90;;;;;;5022534;28;20275;-70
2022/07/04 11:17:59;;;;;;;1.27;1.17;;;41.30;45.30;;;;;;5013547;28;20177;-70
2022/07/04 11:20:27;;;;;;;1.45;1.35;;;42.20;42.30;;;;;;5014390;28;20173;-70
2022/07/04 11:22:53;;;;;;;3.15;1.40;;;42.60;42.40;;;;;;5014530;28;20670;-70
2022/07/04 11:25:19;;;;;;;1.10;1.10;;;42.30;41.50;;;;;;5014660;28;20196;-70
2022/07/04 11:27:44;;;;;;;2.03;0.80;;;42.70;41.70;;;;;;5027349;28;20284;-70
2022/07/04 11:30:11;;;;;;;1.48;1.38;;;43.00;40.30;;;;;;5023625;28;20203;-72
2022/07/04 11:32:38;;;;;;;2.08;1.38;;;43.10;41.30;;;;;;5028227;28;20268;-72
2022/07/04 11:35:05;;;;;;;1.73;1.50;;;43.30;39.10;;;;;;5021716;28;20677;-72
2022/07/04 11:37:31;;;;;;;1.00;1.00;;;43.30;39.50;;;;;;5023538;28;20183;-72
2022/07/04 11:45:49;;;;;;;1.15;1.15;;;42.70;41.80;;;;;;5029210;28;20206;-72
2022/07/04 11:48:25;;;;;;;1.10;1.10;;;42.70;43.80;;;;;;5028245;28;20450;-72
2022/07/04 11:50:51;;;;;;;1.48;0.98;;;43.30;39.70;;;;;;5030733;28;20620;-72
2022/07/04 11:53:18;;;;;;;1.10;1.10;;;43.40;39.00;;;;;;5029923;28;20167;-71
2022/07/04 11:55:57;;;;;;;1.05;1.05;;;43.20;39.00;;;;;;5027747;28;20197;-73
2022/07/04 11:58:42;;;;;;;3.15;1.20;;;42.00;40.60;;;;;;5014260;28;20180;-73
2022/07/04 12:01:09;;;;;;;1.17;1.10;;;41.10;43.90;;;;;;5028733;28;20182;-74
2022/07/04 12:03:35;;;;;;;1.45;1.08;;;42.00;42.90;;;;;;5030243;28;20585;-73
2022/07/04 12:06:05;;;;;;;1.10;1.10;;;42.80;40.80;;;;;;5019906;28;20179;-72
2022/07/04 12:08:32;;;;;;;1.10;1.10;;;42.70;40.60;;;;;;5022335;28;20195;-72
2022/07/04 12:10:57;;;;;;;1.75;1.10;;;43.20;39.60;;;;;;5028172;28;20197;-72
2022/07/04 12:13:24;;;;;;;4.05;1.00;;;43.40;39.00;;;;;;5022409;28;20260;-72
2022/07/04 12:15:56;;;;;;;1.33;1.23;;;42.00;40.60;;;;;;5039800;28;20210;-72
2022/07/04 12:18:23;;;;;;;3.13;1.30;;;41.50;41.40;;;;;;5026965;28;20207;-73
2022/07/04 12:20:50;;;;;;;4.03;1.50;;;39.90;44.20;;;;;;5022495;28;20284;-73
2022/07/04 12:23:19;;;;;;;1.45;1.20;;;38.70;44.80;;;;;;5022028;28;20176;-72
2022/07/04 12:25:46;;;;;;;2.05;1.20;;;38.10;45.20;;;;;;5020900;28;20245;-71
2022/07/04 12:28:15;;;;;;;1.23;1.23;;;37.40;46.10;;;;;;5024031;28;20176;-72
2022/07/04 12:30:58;;;;;;;1.45;1.35;;;36.60;49.30;;;;;;5019556;28;20254;-72
2022/07/04 12:33:26;;;;;;;1.45;1.42;;;36.60;49.00;;;;;;5019897;28;20177;-73
2022/07/04 12:36:00;;;;;;;1.38;1.30;;;37.20;50.00;;;;;;5022404;28;20308;-73
2022/07/04 12:38:29;;;;;;;1.48;1.38;;;38.20;46.60;;;;;;5017067;28;20182;-73
2022/07/04 12:41:08;;;;;;;1.30;1.30;;;37.80;47.20;;;;;;5027510;28;20759;-72
2022/07/04 12:43:40;;;;;;;1.42;1.30;;;37.70;46.30;;;;;;5019259;28;20188;-72
2022/07/04 12:46:06;;;;;;;2.67;1.50;;;36.80;47.30;;;;;;5020286;28;20724;-72
2022/07/04 12:48:33;;;;;;;1.15;1.13;;;35.40;49.40;;;;;;5025131;28;20302;-72
2022/07/04 12:51:17;;;;;;;1.75;1.30;;;34.40;51.00;;;;;;5018233;28;20201;-72
2022/07/04 12:53:44;;;;;;;1.73;1.50;;;33.40;52.90;;;;;;5021677;28;20411;-72
2022/07/04 12:56:26;;;;;;;2.60;1.38;;;32.80;53.30;;;;;;5013199;28;20188;-74
2022/07/04 12:58:51;;;;;;;1.35;1.25;;;32.40;54.90;;;;;;5030097;28;20187;-72
2022/07/04 13:01:17;;;;;;;1.70;1.30;;;32.30;54.10;;;;;;5032666;28;20168;-73
2022/07/04 13:03:43;;;;;;;2.00;1.40;;;32.30;54.90;;;;;;5031783;28;20643;-74
2022/07/04 13:06:08;;;;;;;1.83;1.42;;;32.40;54.10;;;;;;5031124;28;20178;-74
2022/07/04 13:08:34;;;;;;;1.60;1.50;;;32.40;54.00;;;;;;5025456;28;20184;-73
2022/07/04 13:13:43;;;;;;;3.13;1.52;;;35.40;51.60;;;;;;5017227;28;20269;-74